Disclaimer

Please do not use the information listed here in-flight or in-navigation, as they are not provided to us by the airports but are provided by volunteers, so they might be outdated.

Search


Regions


Airport information page

Radio informations:
Tower (TWR) - 135.1 MHz
APRON - 121.825 MHz
Automatic Terminal Information Service (ATIS) - 127.4 MHz
Approach (APP) - 128.15 MHz

Airport informations:
Latitude: 35° 51' 26.99" N
Longitude: 014° 28' 39.00" E
Elevation: 300 feet - 91 meters
Operating hours: 24 hour operations
Operating agency: Civil government, landing fees and diplomatic clearance may be required
Timezone: UTC+1(+2DT) - Last Sunday in March to last Sunday in October
Fuel: Jet A1, without icing nhibitor.

Runway information:
06/24 - 7799 x 148 feet< - >2377 x 45 meters
14/32 - 11627 x 197 feet< - >3544 x 60 meters

Recent METARs:
LMML 191615Z 21014KT 9999 FEW028 20/14 Q1007 NOSIG
LMML 191645Z 21012KT 9999 FEW025 20/14 Q1007 NOSIG
LMML 191715Z 21015KT 9999 FEW025 20/15 Q1007 NOSIG

Airport on the map: